createdAt,value
2023-03-13T00:01:46.797Z,3.88
2023-03-13T00:04:13.567Z,3.90
2023-03-13T00:06:40.641Z,3.99
2023-03-13T00:09:09.581Z,4.02
2023-03-13T00:11:38.958Z,4.04
2023-03-13T00:14:06.691Z,4.03
2023-03-13T00:16:35.638Z,4.01
2023-03-13T00:19:02.385Z,4.06
2023-03-13T00:21:30.701Z,4.11
2023-03-13T00:23:59.309Z,4.16
2023-03-13T00:26:27.397Z,4.15
2023-03-13T00:28:54.256Z,4.11
2023-03-13T00:31:26.769Z,4.08
2023-03-13T00:33:57.178Z,4.09
2023-03-13T00:36:26.341Z,4.12
2023-03-13T00:38:53.912Z,4.18
2023-03-13T00:41:29.311Z,4.25
2023-03-13T00:43:56.648Z,4.41
2023-03-13T00:46:25.742Z,4.41
2023-03-13T00:48:52.828Z,4.41
2023-03-13T00:51:21.146Z,4.40
2023-03-13T00:53:48.314Z,4.45
2023-03-13T00:56:17.455Z,4.48
2023-03-13T00:58:45.865Z,4.48
2023-03-13T01:01:14.392Z,4.50
2023-03-13T01:03:42.990Z,4.47
2023-03-13T01:06:13.709Z,4.49
2023-03-13T01:08:40.874Z,4.52
2023-03-13T01:11:10.980Z,4.48
2023-03-13T01:13:37.951Z,4.50
2023-03-13T01:16:11.718Z,4.52
2023-03-13T01:18:41.223Z,4.48
2023-03-13T01:21:08.011Z,4.48
2023-03-13T01:23:34.863Z,4.48
2023-03-13T01:26:01.899Z,4.48
2023-03-13T01:28:28.484Z,4.48
2023-03-13T01:30:55.207Z,4.48
2023-03-13T01:33:22.170Z,4.48
2023-03-13T01:35:48.814Z,4.46
2023-03-13T01:38:15.429Z,4.46
2023-03-13T01:40:48.250Z,4.45
2023-03-13T01:43:27.930Z,4.40
2023-03-13T01:46:03.982Z,4.37
2023-03-13T01:48:48.790Z,4.33
2023-03-13T01:51:15.284Z,4.30
2023-03-13T01:53:46.053Z,4.28
2023-03-13T01:56:18.992Z,4.34
2023-03-13T01:58:47.853Z,4.34
2023-03-13T02:01:15.475Z,4.32
2023-03-13T02:03:42.860Z,4.33
2023-03-13T02:06:11.156Z,4.34
2023-03-13T02:08:49.516Z,4.34
2023-03-13T02:11:24.847Z,4.40
2023-03-13T02:13:53.619Z,4.41
2023-03-13T02:16:21.974Z,4.46
2023-03-13T02:18:48.938Z,4.47
2023-03-13T02:21:32.515Z,4.51
2023-03-13T02:24:21.252Z,4.48
2023-03-13T02:26:47.807Z,4.49
2023-03-13T02:29:18.424Z,4.53
2023-03-13T02:31:47.352Z,4.47
2023-03-13T02:34:20.746Z,4.43
2023-03-13T02:36:48.170Z,4.39
2023-03-13T02:39:18.557Z,4.41
2023-03-13T02:41:46.917Z,4.40
2023-03-13T02:44:13.488Z,4.38
2023-03-13T02:46:52.513Z,4.38
2023-03-13T02:49:29.115Z,4.34
2023-03-13T02:52:06.024Z,4.25
2023-03-13T02:54:35.919Z,4.21
2023-03-13T02:57:04.756Z,4.19
2023-03-13T02:59:32.151Z,4.18
2023-03-13T03:01:58.798Z,4.17
2023-03-13T03:04:26.726Z,4.14
2023-03-13T03:06:53.784Z,4.13
2023-03-13T03:09:21.052Z,4.09
2023-03-13T03:11:48.072Z,4.12
2023-03-13T03:14:15.242Z,4.12
2023-03-13T03:16:42.130Z,4.08
2023-03-13T03:19:08.839Z,4.04
2023-03-13T03:21:35.770Z,3.96
2023-03-13T03:24:02.740Z,3.85
2023-03-13T03:26:29.576Z,3.73
2023-03-13T03:28:56.520Z,3.66
2023-03-13T03:31:23.115Z,3.59
2023-03-13T03:33:49.700Z,3.53
2023-03-13T03:36:20.082Z,3.44
2023-03-13T03:38:47.520Z,3.42
2023-03-13T03:41:14.383Z,3.41
2023-03-13T03:43:41.612Z,3.32
2023-03-13T03:46:09.011Z,3.28
2023-03-13T03:48:36.583Z,3.24
2023-03-13T03:51:03.720Z,3.16
2023-03-13T03:53:30.798Z,3.05
2023-03-13T03:55:57.328Z,2.89
2023-03-13T03:58:24.399Z,2.75
2023-03-13T04:00:51.013Z,2.72
2023-03-13T04:03:17.776Z,2.59
2023-03-13T04:05:44.484Z,2.38
2023-03-13T04:08:11.091Z,2.31
2023-03-13T04:10:37.659Z,2.41
2023-03-13T04:13:04.310Z,2.50
2023-03-13T04:15:30.880Z,2.58
2023-03-13T04:17:57.650Z,2.64
2023-03-13T04:20:24.253Z,2.74
2023-03-13T04:22:50.815Z,2.78
2023-03-13T04:25:17.618Z,2.77
2023-03-13T04:27:44.333Z,2.79
2023-03-13T04:30:11.375Z,2.81
2023-03-13T04:32:37.916Z,2.85
2023-03-13T04:35:05.194Z,2.87
2023-03-13T04:37:31.833Z,2.80
2023-03-13T04:39:58.464Z,2.78
2023-03-13T04:42:25.139Z,2.84
2023-03-13T04:44:51.673Z,2.87
2023-03-13T04:47:18.793Z,2.86
2023-03-13T04:49:45.401Z,2.95
2023-03-13T04:52:12.868Z,3.04
2023-03-13T04:54:39.398Z,3.08
2023-03-13T04:57:06.102Z,3.09
2023-03-13T04:59:32.664Z,3.13
2023-03-13T05:01:59.220Z,3.20
2023-03-13T05:04:25.751Z,3.26
2023-03-13T05:06:52.291Z,3.35
2023-03-13T05:09:18.834Z,3.38
2023-03-13T05:11:45.385Z,3.38
2023-03-13T05:14:11.896Z,3.34
2023-03-13T05:16:39.166Z,3.34
2023-03-13T05:19:05.779Z,3.36
2023-03-13T05:21:32.517Z,3.41
2023-03-13T05:23:59.145Z,3.47
2023-03-13T05:26:25.748Z,3.52
2023-03-13T05:28:52.370Z,3.54
2023-03-13T05:31:19.090Z,3.55
2023-03-13T05:33:45.859Z,3.53
2023-03-13T05:36:12.437Z,3.55
2023-03-13T05:38:39.139Z,3.57
2023-03-13T05:41:05.685Z,3.58
2023-03-13T05:43:32.324Z,3.58
2023-03-13T05:45:58.944Z,3.59
2023-03-13T05:48:26.830Z,3.64
2023-03-13T05:50:53.386Z,3.67
2023-03-13T05:53:20.021Z,3.72
2023-03-13T05:55:46.555Z,3.78
2023-03-13T05:58:13.166Z,3.84
2023-03-13T06:00:39.756Z,3.91
2023-03-13T06:03:06.328Z,3.97
2023-03-13T06:05:32.885Z,3.99
2023-03-13T06:07:59.435Z,4.00
2023-03-13T06:10:26.016Z,4.01
2023-03-13T06:12:54.390Z,4.01
2023-03-13T06:15:21.057Z,4.10
2023-03-13T06:17:47.843Z,4.19
2023-03-13T06:20:14.452Z,4.25
2023-03-13T06:22:42.073Z,4.28
2023-03-13T06:25:09.122Z,4.37
2023-03-13T06:27:35.854Z,4.42
2023-03-13T06:30:03.428Z,4.57
2023-03-13T06:32:30.180Z,4.67
2023-03-13T06:34:56.926Z,4.73
2023-03-13T06:37:23.533Z,4.75
2023-03-13T06:39:50.101Z,4.81
2023-03-13T06:42:16.616Z,4.90
2023-03-13T06:44:43.245Z,5.03
2023-03-13T06:47:09.860Z,5.13
2023-03-13T06:49:36.553Z,5.23
2023-03-13T06:52:03.227Z,5.22
2023-03-13T06:54:30.228Z,5.18
2023-03-13T06:56:56.843Z,5.17
2023-03-13T06:59:23.406Z,5.16
2023-03-13T07:01:50.140Z,5.26
2023-03-13T07:04:16.910Z,5.26
2023-03-13T07:06:43.601Z,5.30
2023-03-13T07:09:10.949Z,5.33
2023-03-13T07:11:37.749Z,5.49
2023-03-13T07:14:15.792Z,5.65
2023-03-13T07:16:43.881Z,5.77
2023-03-13T07:19:10.673Z,5.93
2023-03-13T07:21:37.401Z,6.06
2023-03-13T07:24:04.394Z,6.05
2023-03-13T07:26:32.602Z,6.11
2023-03-13T07:28:59.348Z,6.14
2023-03-13T07:31:26.298Z,6.12
2023-03-13T07:33:56.554Z,6.04
2023-03-13T07:36:23.830Z,6.09
2023-03-13T07:38:51.611Z,6.10
2023-03-13T07:41:18.921Z,6.14
2023-03-13T07:43:46.226Z,6.15
2023-03-13T07:46:15.787Z,6.17
2023-03-13T07:48:43.394Z,6.26
2023-03-13T07:51:20.555Z,6.31
2023-03-13T07:53:51.216Z,6.43
2023-03-13T07:56:20.387Z,6.50
2023-03-13T07:58:47.038Z,6.54
2023-03-13T08:01:16.500Z,6.67
2023-03-13T08:03:44.195Z,6.73
2023-03-13T08:06:13.395Z,6.82
2023-03-13T08:08:40.995Z,6.91
2023-03-13T08:11:11.175Z,6.94
2023-03-13T08:13:38.362Z,7.06
2023-03-13T08:16:08.045Z,7.17
2023-03-13T08:18:36.514Z,7.25
2023-03-13T08:21:14.747Z,7.26
2023-03-13T08:23:41.966Z,7.27
2023-03-13T08:26:14.885Z,7.34
2023-03-13T08:28:42.503Z,7.47
2023-03-13T08:31:10.342Z,7.55
2023-03-13T08:33:37.273Z,7.59
2023-03-13T08:36:33.999Z,7.67
2023-03-13T08:39:03.568Z,7.86
2023-03-13T08:41:34.868Z,7.98
2023-03-13T08:44:02.211Z,8.11
2023-03-13T08:46:34.778Z,8.18
2023-03-13T08:49:02.600Z,8.28
2023-03-13T08:51:29.699Z,8.41
2023-03-13T08:53:56.798Z,8.51
2023-03-13T08:56:28.723Z,8.61
2023-03-13T08:58:58.233Z,8.71
2023-03-13T09:01:27.549Z,8.82
2023-03-13T09:03:54.389Z,9.03
2023-03-13T09:06:21.418Z,9.08
2023-03-13T09:08:48.345Z,9.21
2023-03-13T09:11:17.387Z,9.39
2023-03-13T09:13:46.794Z,9.57
2023-03-13T09:16:16.528Z,9.69
2023-03-13T09:18:44.304Z,9.86
2023-03-13T09:21:14.100Z,10.00
2023-03-13T09:23:40.827Z,10.16
2023-03-13T09:26:07.509Z,10.28
2023-03-13T09:28:34.615Z,10.32
2023-03-13T09:31:08.942Z,10.42
2023-03-13T09:33:36.058Z,10.56
2023-03-13T09:36:02.821Z,10.78
2023-03-13T09:38:29.930Z,10.95
2023-03-13T09:41:06.442Z,11.13
2023-03-13T09:43:58.371Z,11.23
2023-03-13T09:46:46.153Z,11.20
2023-03-13T09:49:27.547Z,11.24
2023-03-13T09:52:01.505Z,11.24
2023-03-13T09:54:46.275Z,11.29
2023-03-13T09:57:15.612Z,11.49
2023-03-13T09:59:48.385Z,11.65
2023-03-13T10:02:25.607Z,11.83
2023-03-13T10:04:58.238Z,12.07
2023-03-13T10:07:24.828Z,12.19
2023-03-13T10:09:53.660Z,12.40
2023-03-13T10:12:24.902Z,12.55
2023-03-13T10:15:16.104Z,12.63
2023-03-13T10:17:42.682Z,12.77
2023-03-13T10:20:23.644Z,12.79
2023-03-13T10:23:03.334Z,12.92
2023-03-13T10:25:38.761Z,13.16
2023-03-13T10:28:12.879Z,13.35
2023-03-13T10:30:49.440Z,13.57
2023-03-13T10:33:28.143Z,13.72
2023-03-13T10:36:20.883Z,13.86
2023-03-13T10:38:47.525Z,13.99
2023-03-13T10:41:33.762Z,14.12
2023-03-13T10:44:06.236Z,14.23
2023-03-13T10:46:35.999Z,14.42
2023-03-13T10:49:04.868Z,14.58
2023-03-13T10:51:48.632Z,14.72
2023-03-13T10:54:25.799Z,14.97
2023-03-13T10:57:07.307Z,15.33
2023-03-13T10:59:40.757Z,15.69
2023-03-13T11:02:34.035Z,15.99
2023-03-13T11:05:01.984Z,16.14
2023-03-13T11:07:38.550Z,16.47
2023-03-13T11:10:13.843Z,16.76
2023-03-13T11:12:45.573Z,17.07
2023-03-13T11:15:18.946Z,17.14
2023-03-13T11:17:51.368Z,17.53
2023-03-13T11:20:25.921Z,17.67
2023-03-13T11:23:16.778Z,17.92
2023-03-13T11:25:58.006Z,18.19
2023-03-13T11:29:09.259Z,18.57
2023-03-13T11:31:46.232Z,18.85
2023-03-13T11:34:25.873Z,19.02
2023-03-13T11:37:03.518Z,19.20
2023-03-13T11:40:07.934Z,19.48
2023-03-13T11:42:42.507Z,19.48
2023-03-13T11:45:12.028Z,19.42
2023-03-13T11:48:07.409Z,19.80
2023-03-13T11:50:42.376Z,20.34
2023-03-13T11:53:10.770Z,20.77
2023-03-13T11:55:43.364Z,21.57
2023-03-13T11:58:19.061Z,21.37
2023-03-13T12:00:57.864Z,21.14
2023-03-13T12:03:48.876Z,21.88
2023-03-13T12:06:27.945Z,22.19
2023-03-13T12:09:02.314Z,22.28
2023-03-13T12:11:38.669Z,22.88
2023-03-13T12:14:25.290Z,23.37
2023-03-13T12:16:59.197Z,23.20
2023-03-13T12:19:45.801Z,22.51
2023-03-13T12:22:20.277Z,21.62
2023-03-13T12:25:10.720Z,21.14
2023-03-13T12:27:43.072Z,21.19
2023-03-13T12:30:41.083Z,21.33
2023-03-13T12:33:15.804Z,21.81
2023-03-13T12:35:47.414Z,22.51
2023-03-13T12:38:19.744Z,22.93
2023-03-13T12:41:17.837Z,23.56
2023-03-13T12:44:00.581Z,23.33
2023-03-13T12:46:43.227Z,23.71
2023-03-13T12:49:18.859Z,24.28
2023-03-13T12:52:10.389Z,24.57
2023-03-13T12:54:55.683Z,24.84
2023-03-13T12:58:00.925Z,25.35
2023-03-13T13:00:30.898Z,24.94
2023-03-13T13:03:18.239Z,24.84
2023-03-13T13:06:00.101Z,24.54
2023-03-13T13:08:27.187Z,24.28
2023-03-13T13:10:53.807Z,23.90
2023-03-13T13:13:32.780Z,24.25
2023-03-13T13:16:18.546Z,24.73
2023-03-13T13:18:45.159Z,24.43
2023-03-13T13:21:26.596Z,24.13
2023-03-13T13:23:56.454Z,23.86
2023-03-13T13:26:36.808Z,23.68
2023-03-13T13:29:12.356Z,23.88
2023-03-13T13:31:51.975Z,24.23
2023-03-13T13:34:31.103Z,24.47
2023-03-13T13:36:59.458Z,24.62
2023-03-13T13:39:50.440Z,24.75
2023-03-13T13:42:45.563Z,24.55
2023-03-13T13:45:14.920Z,25.22
2023-03-13T13:47:44.639Z,25.29
2023-03-13T13:50:19.472Z,24.77
2023-03-13T13:52:47.664Z,23.35
2023-03-13T13:55:26.452Z,23.40
2023-03-13T13:58:04.324Z,23.46
2023-03-13T14:01:00.773Z,23.20
2023-03-13T14:03:30.708Z,23.06
2023-03-13T14:06:17.809Z,22.71
2023-03-13T14:08:47.066Z,21.88
2023-03-13T14:11:36.764Z,21.28
2023-03-13T14:14:19.700Z,20.74
2023-03-13T14:16:51.637Z,21.04
2023-03-13T14:19:42.944Z,21.52
2023-03-13T14:22:11.330Z,22.00
2023-03-13T14:24:38.362Z,21.65
2023-03-13T14:27:16.429Z,21.53
2023-03-13T14:30:00.015Z,21.41
2023-03-13T14:32:26.764Z,21.22
2023-03-13T14:34:53.420Z,21.15
2023-03-13T14:37:37.809Z,21.65
2023-03-13T14:40:24.633Z,21.89
2023-03-13T14:42:57.706Z,22.05
2023-03-13T14:45:33.454Z,21.88
2023-03-13T14:48:18.957Z,21.78
2023-03-13T14:50:45.840Z,21.23
2023-03-13T14:53:17.325Z,21.16
2023-03-13T14:55:44.446Z,21.22
2023-03-13T14:58:19.978Z,21.44
2023-03-13T15:00:48.694Z,21.10
2023-03-13T15:03:18.971Z,20.96
2023-03-13T15:05:48.839Z,21.02
2023-03-13T15:08:21.686Z,20.68
2023-03-13T15:10:49.500Z,20.34
2023-03-13T15:13:34.085Z,19.84
2023-03-13T15:16:01.893Z,19.68
2023-03-13T15:18:31.716Z,19.45
2023-03-13T15:21:17.434Z,19.01
2023-03-13T15:24:11.192Z,18.47
2023-03-13T15:26:37.765Z,17.91
2023-03-13T15:29:04.524Z,17.70
2023-03-13T15:31:31.275Z,17.55
2023-03-13T15:34:00.165Z,17.45
2023-03-13T15:36:28.721Z,17.29
2023-03-13T15:38:55.788Z,16.94
2023-03-13T15:41:22.778Z,16.76
2023-03-13T15:43:52.744Z,16.60
2023-03-13T15:46:20.592Z,16.49
2023-03-13T15:48:48.014Z,16.40
2023-03-13T15:51:16.698Z,16.16
2023-03-13T15:53:44.324Z,15.94
2023-03-13T15:56:20.157Z,15.76
2023-03-13T15:58:48.404Z,15.53
2023-03-13T16:01:16.872Z,15.39
2023-03-13T16:03:43.770Z,15.37
2023-03-13T16:06:28.084Z,15.34
2023-03-13T16:08:54.625Z,15.32
2023-03-13T16:11:21.247Z,15.28
2023-03-13T16:13:47.812Z,15.15
2023-03-13T16:16:20.985Z,15.07
2023-03-13T16:18:49.638Z,14.94
2023-03-13T16:21:21.012Z,14.75
2023-03-13T16:23:48.215Z,14.66
2023-03-13T16:26:20.638Z,14.65
2023-03-13T16:28:48.126Z,14.62
2023-03-13T16:31:33.569Z,14.56
2023-03-13T16:34:00.751Z,14.47
2023-03-13T16:36:31.123Z,14.36
2023-03-13T16:38:59.403Z,14.27
2023-03-13T16:41:27.783Z,14.13
2023-03-13T16:43:55.716Z,14.08
2023-03-13T16:46:30.381Z,14.01
2023-03-13T16:48:58.455Z,13.96
2023-03-13T16:51:27.436Z,13.86
2023-03-13T16:53:56.216Z,13.82
2023-03-13T16:56:33.979Z,13.79
2023-03-13T16:59:02.279Z,13.73
2023-03-13T17:01:29.220Z,13.65
2023-03-13T17:03:57.766Z,13.53
2023-03-13T17:06:27.181Z,13.47
2023-03-13T17:08:54.324Z,13.43
2023-03-13T17:11:22.410Z,13.38
2023-03-13T17:13:51.711Z,13.34
2023-03-13T17:16:19.979Z,13.26
2023-03-13T17:18:49.036Z,13.23
2023-03-13T17:21:22.064Z,13.20
2023-03-13T17:23:48.631Z,13.20
2023-03-13T17:26:23.070Z,13.14
2023-03-13T17:28:52.263Z,13.06
2023-03-13T17:31:20.226Z,13.03
2023-03-13T17:33:47.713Z,12.93
2023-03-13T17:36:15.448Z,12.89
2023-03-13T17:38:42.136Z,12.84
2023-03-13T17:41:14.099Z,12.76
2023-03-13T17:43:41.793Z,12.69
2023-03-13T17:46:15.726Z,12.65
2023-03-13T17:48:42.552Z,12.62
2023-03-13T17:51:17.958Z,12.59
2023-03-13T17:53:44.966Z,12.54
2023-03-13T17:56:20.232Z,12.46
2023-03-13T17:58:54.232Z,12.41
2023-03-13T18:01:22.427Z,12.35
2023-03-13T18:03:49.566Z,12.30
2023-03-13T18:06:25.807Z,12.20
2023-03-13T18:08:55.116Z,12.15
2023-03-13T18:11:23.149Z,12.09
2023-03-13T18:13:49.866Z,12.01
2023-03-13T18:16:25.472Z,11.97
2023-03-13T18:18:53.397Z,11.92
2023-03-13T18:21:21.856Z,11.91
2023-03-13T18:23:48.483Z,11.86
2023-03-13T18:26:32.900Z,11.84
2023-03-13T18:29:01.190Z,11.77
2023-03-13T18:31:30.355Z,11.73
2023-03-13T18:34:00.161Z,11.67
2023-03-13T18:36:27.731Z,11.62
2023-03-13T18:38:54.399Z,11.58
2023-03-13T18:41:21.331Z,11.52
2023-03-13T18:43:48.331Z,11.46
2023-03-13T18:46:20.299Z,11.37
2023-03-13T18:48:47.202Z,11.30
2023-03-13T18:51:15.377Z,11.24
2023-03-13T18:53:42.205Z,11.23
2023-03-13T18:56:25.378Z,11.18
2023-03-13T18:58:53.594Z,11.10
2023-03-13T19:01:23.158Z,11.04
2023-03-13T19:03:50.168Z,10.97
2023-03-13T19:06:26.344Z,10.92
2023-03-13T19:08:55.720Z,10.86
2023-03-13T19:11:25.777Z,10.78
2023-03-13T19:13:52.740Z,10.76
2023-03-13T19:16:27.468Z,10.79
2023-03-13T19:18:54.182Z,10.78
2023-03-13T19:21:29.604Z,10.72
2023-03-13T19:23:57.351Z,10.70
2023-03-13T19:26:31.316Z,10.66
2023-03-13T19:28:59.515Z,10.64
2023-03-13T19:31:26.191Z,10.67
2023-03-13T19:33:55.660Z,10.68
2023-03-13T19:36:24.342Z,10.65
2023-03-13T19:38:51.238Z,10.64
2023-03-13T19:41:17.865Z,10.61
2023-03-13T19:43:45.506Z,10.58
2023-03-13T19:46:22.872Z,10.55
2023-03-13T19:48:52.629Z,10.51
2023-03-13T19:51:19.438Z,10.48
2023-03-13T19:53:46.493Z,10.47
2023-03-13T19:56:17.434Z,10.42
2023-03-13T19:58:46.227Z,10.39
2023-03-13T20:01:17.618Z,10.36
2023-03-13T20:03:45.815Z,10.36
2023-03-13T20:06:40.059Z,10.28
2023-03-13T20:09:09.196Z,10.24
2023-03-13T20:11:36.416Z,10.19
2023-03-13T20:14:03.589Z,10.16
2023-03-13T20:16:33.644Z,10.11
2023-03-13T20:19:01.873Z,10.03
2023-03-13T20:21:30.913Z,10.00
2023-03-13T20:23:58.446Z,9.95
2023-03-13T20:26:26.395Z,9.92
2023-03-13T20:28:54.258Z,9.87
2023-03-13T20:31:26.492Z,9.83
2023-03-13T20:33:54.505Z,9.77
2023-03-13T20:36:21.556Z,9.70
2023-03-13T20:38:48.668Z,9.65
2023-03-13T20:41:24.475Z,9.61
2023-03-13T20:43:52.298Z,9.57
2023-03-13T20:46:18.987Z,9.53
2023-03-13T20:48:45.580Z,9.52
2023-03-13T20:51:12.883Z,9.51
2023-03-13T20:53:41.523Z,9.48
2023-03-13T20:56:09.356Z,9.44
2023-03-13T20:58:36.521Z,9.35
2023-03-13T21:01:05.131Z,9.32
2023-03-13T21:03:35.419Z,9.25
2023-03-13T21:06:09.688Z,9.22
2023-03-13T21:08:38.574Z,9.17
2023-03-13T21:11:15.726Z,9.08
2023-03-13T21:13:42.476Z,8.97
2023-03-13T21:16:09.711Z,8.90
2023-03-13T21:18:37.307Z,8.87
2023-03-13T21:21:05.884Z,8.82
2023-03-13T21:23:32.878Z,8.77
2023-03-13T21:26:00.626Z,8.75
2023-03-13T21:28:28.191Z,8.72
2023-03-13T21:30:55.360Z,8.67
2023-03-13T21:33:22.342Z,8.59
2023-03-13T21:35:50.677Z,8.50
2023-03-13T21:38:17.606Z,8.48
2023-03-13T21:40:44.210Z,8.44
2023-03-13T21:43:10.774Z,8.37
2023-03-13T21:45:37.404Z,8.38
2023-03-13T21:48:04.214Z,8.42
2023-03-13T21:50:30.960Z,8.38
2023-03-13T21:52:57.681Z,8.33
2023-03-13T21:55:24.260Z,8.36
2023-03-13T21:57:51.042Z,8.35
2023-03-13T22:00:17.879Z,8.32
2023-03-13T22:02:44.546Z,8.30
2023-03-13T22:05:11.582Z,8.30
2023-03-13T22:07:38.228Z,8.28
2023-03-13T22:10:05.307Z,8.22
2023-03-13T22:12:31.875Z,8.22
2023-03-13T22:14:58.510Z,8.23
2023-03-13T22:17:25.204Z,8.23
2023-03-13T22:19:51.874Z,8.20
2023-03-13T22:22:20.021Z,8.25
2023-03-13T22:24:46.764Z,8.30
2023-03-13T22:27:13.958Z,8.25
2023-03-13T22:29:41.131Z,8.20
2023-03-13T22:32:07.762Z,8.17
2023-03-13T22:34:34.361Z,8.14
2023-03-13T22:37:01.101Z,8.13
2023-03-13T22:39:27.685Z,8.09
2023-03-13T22:41:54.306Z,8.03
2023-03-13T22:44:21.700Z,8.04
2023-03-13T22:46:48.480Z,8.04
2023-03-13T22:49:15.151Z,8.02
2023-03-13T22:51:41.722Z,7.96
2023-03-13T22:54:08.524Z,7.92
2023-03-13T22:56:35.084Z,7.87
2023-03-13T22:59:03.085Z,7.84
2023-03-13T23:01:29.928Z,7.83
2023-03-13T23:03:56.636Z,7.77
2023-03-13T23:06:25.546Z,7.70
2023-03-13T23:08:52.470Z,7.61
2023-03-13T23:11:19.960Z,7.58
2023-03-13T23:13:47.052Z,7.49
2023-03-13T23:16:14.737Z,7.46
2023-03-13T23:18:42.269Z,7.35
2023-03-13T23:21:14.321Z,7.33
2023-03-13T23:23:41.772Z,7.23
2023-03-13T23:26:15.454Z,7.10
2023-03-13T23:28:42.389Z,6.97
2023-03-13T23:31:17.612Z,6.92
2023-03-13T23:33:45.170Z,6.86
2023-03-13T23:36:14.868Z,6.85
2023-03-13T23:38:41.935Z,6.75
2023-03-13T23:41:10.971Z,6.66
2023-03-13T23:43:38.000Z,6.60
2023-03-13T23:46:05.596Z,6.54
2023-03-13T23:48:32.237Z,6.41
2023-03-13T23:50:59.014Z,6.28
2023-03-13T23:53:25.632Z,6.18
2023-03-13T23:55:58.556Z,6.00
2023-03-13T23:58:25.382Z,5.90
